sensor_id;sensor_type;location;lat;lon;timestamp;pressure;altitude;pressure_sealevel;temperature;humidity
42633;BME280;28261;53.304;-6.284;2023-03-19T00:00:23;100967.75;;;5.02;96.88
42633;BME280;28261;53.304;-6.284;2023-03-19T00:02:26;100966.97;;;5.00;96.88
42633;BME280;28261;53.304;-6.284;2023-03-19T00:04:30;100953.88;;;4.99;96.65
42633;BME280;28261;53.304;-6.284;2023-03-19T00:06:34;100947.84;;;4.97;96.12
42633;BME280;28261;53.304;-6.284;2023-03-19T00:08:37;100952.34;;;4.93;96.05
42633;BME280;28261;53.304;-6.284;2023-03-19T00:10:41;100954.19;;;4.91;95.91
42633;BME280;28261;53.304;-6.284;2023-03-19T00:12:46;100963.03;;;4.88;95.60
42633;BME280;28261;53.304;-6.284;2023-03-19T00:14:49;100971.91;;;4.86;95.56
42633;BME280;28261;53.304;-6.284;2023-03-19T00:16:52;100984.22;;;4.84;95.60
42633;BME280;28261;53.304;-6.284;2023-03-19T00:18:56;100980.81;;;4.82;95.60
42633;BME280;28261;53.304;-6.284;2023-03-19T00:20:59;100984.34;;;4.81;95.33
42633;BME280;28261;53.304;-6.284;2023-03-19T00:23:03;100989.66;;;4.79;94.90
42633;BME280;28261;53.304;-6.284;2023-03-19T00:25:07;100993.13;;;4.80;94.70
42633;BME280;28261;53.304;-6.284;2023-03-19T00:27:11;100987.88;;;4.80;94.28
42633;BME280;28261;53.304;-6.284;2023-03-19T00:29:16;100987.94;;;4.78;94.11
42633;BME280;28261;53.304;-6.284;2023-03-19T00:31:21;100987.16;;;4.76;94.00
42633;BME280;28261;53.304;-6.284;2023-03-19T00:33:25;100998.50;;;4.77;93.42
42633;BME280;28261;53.304;-6.284;2023-03-19T00:35:28;100999.38;;;4.77;92.78
42633;BME280;28261;53.304;-6.284;2023-03-19T00:37:33;101004.63;;;4.77;92.35
42633;BME280;28261;53.304;-6.284;2023-03-19T00:39:36;100996.78;;;4.75;91.99
42633;BME280;28261;53.304;-6.284;2023-03-19T00:41:39;100999.41;;;4.75;91.83
42633;BME280;28261;53.304;-6.284;2023-03-19T00:43:43;100991.53;;;4.75;91.05
42633;BME280;28261;53.304;-6.284;2023-03-19T00:45:48;100988.88;;;4.77;90.96
42633;BME280;28261;53.304;-6.284;2023-03-19T00:47:51;100979.28;;;4.76;90.88
42633;BME280;28261;53.304;-6.284;2023-03-19T00:49:55;100981.03;;;4.75;90.51
42633;BME280;28261;53.304;-6.284;2023-03-19T00:51:58;100979.28;;;4.76;89.81
42633;BME280;28261;53.304;-6.284;2023-03-19T00:54:02;100976.72;;;4.74;88.93
42633;BME280;28261;53.304;-6.284;2023-03-19T00:56:06;100972.38;;;4.73;88.71
42633;BME280;28261;53.304;-6.284;2023-03-19T00:58:10;100982.03;;;4.73;87.93
42633;BME280;28261;53.304;-6.284;2023-03-19T01:02:18;100990.81;;;4.72;87.37
42633;BME280;28261;53.304;-6.284;2023-03-19T01:04:21;100998.69;;;4.72;87.08
42633;BME280;28261;53.304;-6.284;2023-03-19T01:06:25;101004.09;;;4.69;86.88
42633;BME280;28261;53.304;-6.284;2023-03-19T01:08:28;101000.56;;;4.68;87.26
42633;BME280;28261;53.304;-6.284;2023-03-19T01:10:32;101011.16;;;4.67;86.24
42633;BME280;28261;53.304;-6.284;2023-03-19T01:12:38;101008.59;;;4.65;86.01
42633;BME280;28261;53.304;-6.284;2023-03-19T01:14:42;100998.97;;;4.64;86.00
42633;BME280;28261;53.304;-6.284;2023-03-19T01:16:45;100996.41;;;4.63;85.79
42633;BME280;28261;53.304;-6.284;2023-03-19T01:18:50;100995.56;;;4.62;85.79
42633;BME280;28261;53.304;-6.284;2023-03-19T01:20:54;100993.84;;;4.61;85.25
42633;BME280;28261;53.304;-6.284;2023-03-19T01:22:57;100995.66;;;4.59;84.53
42633;BME280;28261;53.304;-6.284;2023-03-19T01:25:03;101010.59;;;4.58;84.61
42633;BME280;28261;53.304;-6.284;2023-03-19T01:27:07;101015.00;;;4.58;85.13
42633;BME280;28261;53.304;-6.284;2023-03-19T01:29:11;101011.47;;;4.57;84.73
42633;BME280;28261;53.304;-6.284;2023-03-19T01:31:14;101020.31;;;4.55;85.09
42633;BME280;28261;53.304;-6.284;2023-03-19T01:33:26;101029.94;;;4.56;84.96
42633;BME280;28261;53.304;-6.284;2023-03-19T01:35:37;101025.56;;;4.55;84.91
42633;BME280;28261;53.304;-6.284;2023-03-19T01:37:41;101026.50;;;4.54;84.42
42633;BME280;28261;53.304;-6.284;2023-03-19T01:39:45;101037.91;;;4.53;84.73
42633;BME280;28261;53.304;-6.284;2023-03-19T01:41:49;101034.53;;;4.49;84.54
42633;BME280;28261;53.304;-6.284;2023-03-19T01:44:25;101046.88;;;4.47;84.57
42633;BME280;28261;53.304;-6.284;2023-03-19T01:46:48;101040.81;;;4.45;84.75
42633;BME280;28261;53.304;-6.284;2023-03-19T01:49:28;101046.94;;;4.46;84.61
42633;BME280;28261;53.304;-6.284;2023-03-19T01:51:48;101045.22;;;4.45;84.62
42633;BME280;28261;53.304;-6.284;2023-03-19T01:54:14;101037.28;;;4.46;84.54
42633;BME280;28261;53.304;-6.284;2023-03-19T01:56:28;101036.31;;;4.49;84.56
42633;BME280;28261;53.304;-6.284;2023-03-19T01:59:03;101024.03;;;4.49;84.58
42633;BME280;28261;53.304;-6.284;2023-03-19T02:01:49;101017.94;;;4.49;84.73
42633;BME280;28261;53.304;-6.284;2023-03-19T02:03:56;101027.53;;;4.50;85.21
42633;BME280;28261;53.304;-6.284;2023-03-19T02:06:04;101023.13;;;4.50;85.02
42633;BME280;28261;53.304;-6.284;2023-03-19T02:08:12;101029.28;;;4.49;84.59
42633;BME280;28261;53.304;-6.284;2023-03-19T02:10:17;101035.44;;;4.48;83.93
42633;BME280;28261;53.304;-6.284;2023-03-19T02:12:21;101034.59;;;4.48;83.71
42633;BME280;28261;53.304;-6.284;2023-03-19T02:14:25;101032.03;;;4.46;83.90
42633;BME280;28261;53.304;-6.284;2023-03-19T02:16:28;101030.31;;;4.45;83.60
42633;BME280;28261;53.304;-6.284;2023-03-19T02:18:32;101033.84;;;4.44;83.95
42633;BME280;28261;53.304;-6.284;2023-03-19T02:20:44;101038.31;;;4.42;83.59
42633;BME280;28261;53.304;-6.284;2023-03-19T02:22:57;101043.63;;;4.40;83.56
42633;BME280;28261;53.304;-6.284;2023-03-19T02:25:08;101041.06;;;4.39;83.45
42633;BME280;28261;53.304;-6.284;2023-03-19T02:27:16;101043.69;;;4.39;83.32
42633;BME280;28261;53.304;-6.284;2023-03-19T02:29:22;101044.66;;;4.36;83.42
42633;BME280;28261;53.304;-6.284;2023-03-19T02:31:27;101052.53;;;4.36;83.53
42633;BME280;28261;53.304;-6.284;2023-03-19T02:33:30;101053.38;;;4.37;83.54
42633;BME280;28261;53.304;-6.284;2023-03-19T02:35:35;101052.53;;;4.36;83.13
42633;BME280;28261;53.304;-6.284;2023-03-19T02:37:39;101042.03;;;4.36;83.51
42633;BME280;28261;53.304;-6.284;2023-03-19T02:39:49;101050.81;;;4.35;83.66
42633;BME280;28261;53.304;-6.284;2023-03-19T02:41:54;101050.00;;;4.33;82.87
42633;BME280;28261;53.304;-6.284;2023-03-19T02:44:03;101045.66;;;4.32;83.03
42633;BME280;28261;53.304;-6.284;2023-03-19T02:46:09;101048.34;;;4.31;82.96
42633;BME280;28261;53.304;-6.284;2023-03-19T02:48:15;101046.63;;;4.30;83.36
42633;BME280;28261;53.304;-6.284;2023-03-19T02:50:18;101046.56;;;4.31;83.41
42633;BME280;28261;53.304;-6.284;2023-03-19T02:52:22;101049.13;;;4.33;83.88
42633;BME280;28261;53.304;-6.284;2023-03-19T02:54:25;101042.97;;;4.34;83.57
42633;BME280;28261;53.304;-6.284;2023-03-19T02:56:30;101031.53;;;4.36;83.88
42633;BME280;28261;53.304;-6.284;2023-03-19T02:58:33;101034.94;;;4.38;83.63
42633;BME280;28261;53.304;-6.284;2023-03-19T03:00:39;101034.94;;;4.38;83.53
42633;BME280;28261;53.304;-6.284;2023-03-19T03:02:43;101034.94;;;4.38;83.31
42633;BME280;28261;53.304;-6.284;2023-03-19T03:04:47;101041.91;;;4.39;83.17
42633;BME280;28261;53.304;-6.284;2023-03-19T03:06:50;101047.16;;;4.39;82.92
42633;BME280;28261;53.304;-6.284;2023-03-19T03:08:53;101044.47;;;4.41;83.57
42633;BME280;28261;53.304;-6.284;2023-03-19T03:10:59;101054.06;;;4.42;83.40
42633;BME280;28261;53.304;-6.284;2023-03-19T03:13:02;101057.53;;;4.43;83.35
42633;BME280;28261;53.304;-6.284;2023-03-19T03:15:07;101052.28;;;4.43;83.25
42633;BME280;28261;53.304;-6.284;2023-03-19T03:17:12;101052.34;;;4.41;83.21
42633;BME280;28261;53.304;-6.284;2023-03-19T03:19:16;101049.72;;;4.41;82.85
42633;BME280;28261;53.304;-6.284;2023-03-19T03:21:21;101041.06;;;4.39;82.78
42633;BME280;28261;53.304;-6.284;2023-03-19T03:23:25;101050.69;;;4.38;82.86
42633;BME280;28261;53.304;-6.284;2023-03-19T03:25:28;101048.13;;;4.37;83.22
42633;BME280;28261;53.304;-6.284;2023-03-19T03:27:32;101046.38;;;4.37;83.09
42633;BME280;28261;53.304;-6.284;2023-03-19T03:29:35;101049.00;;;4.37;82.96
42633;BME280;28261;53.304;-6.284;2023-03-19T03:31:39;101045.56;;;4.35;82.98
42633;BME280;28261;53.304;-6.284;2023-03-19T03:33:43;101058.66;;;4.35;83.22
42633;BME280;28261;53.304;-6.284;2023-03-19T03:35:47;101062.19;;;4.34;83.65
42633;BME280;28261;53.304;-6.284;2023-03-19T03:37:51;101064.81;;;4.34;83.72
42633;BME280;28261;53.304;-6.284;2023-03-19T03:39:55;101060.53;;;4.32;83.59
42633;BME280;28261;53.304;-6.284;2023-03-19T03:41:58;101059.69;;;4.31;83.95
42633;BME280;28261;53.304;-6.284;2023-03-19T03:44:04;101058.84;;;4.31;83.90
42633;BME280;28261;53.304;-6.284;2023-03-19T03:46:09;101051.03;;;4.29;84.05
42633;BME280;28261;53.304;-6.284;2023-03-19T03:48:13;101055.41;;;4.29;84.02
42633;BME280;28261;53.304;-6.284;2023-03-19T03:50:18;101051.94;;;4.28;83.99
42633;BME280;28261;53.304;-6.284;2023-03-19T03:52:24;101061.63;;;4.26;84.33
42633;BME280;28261;53.304;-6.284;2023-03-19T03:54:32;101066.09;;;4.24;84.45
42633;BME280;28261;53.304;-6.284;2023-03-19T03:56:36;101065.16;;;4.25;84.00
42633;BME280;28261;53.304;-6.284;2023-03-19T03:58:39;101063.41;;;4.26;84.31
42633;BME280;28261;53.304;-6.284;2023-03-19T04:00:43;101071.28;;;4.26;84.43
42633;BME280;28261;53.304;-6.284;2023-03-19T04:02:46;101066.03;;;4.26;83.99
42633;BME280;28261;53.304;-6.284;2023-03-19T04:04:50;101060.78;;;4.26;83.71
42633;BME280;28261;53.304;-6.284;2023-03-19T04:06:55;101069.56;;;4.24;83.80
42633;BME280;28261;53.304;-6.284;2023-03-19T04:09:06;101069.56;;;4.24;84.02
42633;BME280;28261;53.304;-6.284;2023-03-19T04:11:10;101074.84;;;4.23;84.38
42633;BME280;28261;53.304;-6.284;2023-03-19T04:13:14;101075.75;;;4.22;83.92
42633;BME280;28261;53.304;-6.284;2023-03-19T04:15:17;101067.09;;;4.20;83.96
42633;BME280;28261;53.304;-6.284;2023-03-19T04:17:22;101074.09;;;4.19;84.09
42633;BME280;28261;53.304;-6.284;2023-03-19T04:19:25;101073.25;;;4.19;84.02
42633;BME280;28261;53.304;-6.284;2023-03-19T04:21:29;101079.41;;;4.18;84.11
42633;BME280;28261;53.304;-6.284;2023-03-19T04:23:34;101085.56;;;4.17;83.96
42633;BME280;28261;53.304;-6.284;2023-03-19T04:25:38;101080.34;;;4.15;83.97
42633;BME280;28261;53.304;-6.284;2023-03-19T04:27:42;101074.25;;;4.15;84.40
42633;BME280;28261;53.304;-6.284;2023-03-19T04:29:46;101074.25;;;4.15;84.17
42633;BME280;28261;53.304;-6.284;2023-03-19T04:31:50;101069.91;;;4.14;84.02
42633;BME280;28261;53.304;-6.284;2023-03-19T04:33:53;101063.88;;;4.12;84.22
42633;BME280;28261;53.304;-6.284;2023-03-19T04:35:57;101061.31;;;4.10;84.06
42633;BME280;28261;53.304;-6.284;2023-03-19T04:38:01;101063.13;;;4.08;84.13
42633;BME280;28261;53.304;-6.284;2023-03-19T04:40:08;101077.16;;;4.07;84.33
42633;BME280;28261;53.304;-6.284;2023-03-19T04:42:12;101076.28;;;4.06;84.40
42633;BME280;28261;53.304;-6.284;2023-03-19T04:44:25;101084.16;;;4.06;84.35
42633;BME280;28261;53.304;-6.284;2023-03-19T04:46:29;101093.75;;;4.07;84.46
42633;BME280;28261;53.304;-6.284;2023-03-19T04:48:33;101085.91;;;4.07;84.55
42633;BME280;28261;53.304;-6.284;2023-03-19T04:50:37;101079.72;;;4.09;84.52
42633;BME280;28261;53.304;-6.284;2023-03-19T04:52:41;101071.84;;;4.09;84.33
42633;BME280;28261;53.304;-6.284;2023-03-19T04:54:46;101086.72;;;4.08;83.97
42633;BME280;28261;53.304;-6.284;2023-03-19T04:56:51;101084.94;;;4.10;84.20
42633;BME280;28261;53.304;-6.284;2023-03-19T04:58:57;101087.44;;;4.13;84.35
42633;BME280;28261;53.304;-6.284;2023-03-19T05:01:00;101088.28;;;4.14;83.93
42633;BME280;28261;53.304;-6.284;2023-03-19T05:03:27;101088.28;;;4.14;83.83
42633;BME280;28261;53.304;-6.284;2023-03-19T05:05:30;101083.88;;;4.16;83.87
42633;BME280;28261;53.304;-6.284;2023-03-19T05:07:39;101084.69;;;4.16;83.81
42633;BME280;28261;53.304;-6.284;2023-03-19T05:09:44;101086.44;;;4.17;83.82
42633;BME280;28261;53.304;-6.284;2023-03-19T05:11:51;101102.22;;;4.16;83.32
42633;BME280;28261;53.304;-6.284;2023-03-19T05:13:56;101108.31;;;4.16;83.61
42633;BME280;28261;53.304;-6.284;2023-03-19T05:16:06;101091.78;;;4.14;83.41
42633;BME280;28261;53.304;-6.284;2023-03-19T05:18:10;101086.53;;;4.14;83.11
42633;BME280;28261;53.304;-6.284;2023-03-19T05:20:18;101088.34;;;4.12;83.22
42633;BME280;28261;53.304;-6.284;2023-03-19T05:22:37;101098.84;;;4.12;82.96
42633;BME280;28261;53.304;-6.284;2023-03-19T05:24:41;101101.56;;;4.09;82.89
42633;BME280;28261;53.304;-6.284;2023-03-19T05:26:44;101097.28;;;4.06;82.45
42633;BME280;28261;53.304;-6.284;2023-03-19T05:29:09;101094.72;;;4.05;82.91
42633;BME280;28261;53.304;-6.284;2023-03-19T05:31:27;101100.81;;;4.05;83.04
42633;BME280;28261;53.304;-6.284;2023-03-19T05:33:31;101107.91;;;4.03;82.85
42633;BME280;28261;53.304;-6.284;2023-03-19T05:35:36;101109.63;;;4.03;83.33
42633;BME280;28261;53.304;-6.284;2023-03-19T05:37:47;101105.28;;;4.03;83.00
42633;BME280;28261;53.304;-6.284;2023-03-19T05:39:51;101100.81;;;4.05;83.36
42633;BME280;28261;53.304;-6.284;2023-03-19T05:41:54;101110.47;;;4.05;83.37
42633;BME280;28261;53.304;-6.284;2023-03-19T05:44:01;101113.13;;;4.03;83.06
42633;BME280;28261;53.304;-6.284;2023-03-19T05:46:36;101109.63;;;4.03;83.43
42633;BME280;28261;53.304;-6.284;2023-03-19T05:48:40;101112.25;;;4.03;83.22
42633;BME280;28261;53.304;-6.284;2023-03-19T05:50:43;101114.03;;;4.02;83.14
42633;BME280;28261;53.304;-6.284;2023-03-19T05:52:53;101114.94;;;4.01;82.90
42633;BME280;28261;53.304;-6.284;2023-03-19T05:54:56;101115.81;;;4.02;83.17
42633;BME280;28261;53.304;-6.284;2023-03-19T05:57:25;101116.66;;;4.02;83.15
42633;BME280;28261;53.304;-6.284;2023-03-19T05:59:49;101115.81;;;4.02;83.08
42633;BME280;28261;53.304;-6.284;2023-03-19T06:02:09;101120.19;;;4.01;82.92
42633;BME280;28261;53.304;-6.284;2023-03-19T06:04:13;101119.34;;;4.01;83.03
42633;BME280;28261;53.304;-6.284;2023-03-19T06:06:17;101121.09;;;4.00;82.68
42633;BME280;28261;53.304;-6.284;2023-03-19T06:08:25;101122.88;;;4.00;82.91
42633;BME280;28261;53.304;-6.284;2023-03-19T06:10:49;101131.63;;;3.99;82.90
42633;BME280;28261;53.304;-6.284;2023-03-19T06:12:54;101133.41;;;3.98;82.82
42633;BME280;28261;53.304;-6.284;2023-03-19T06:15:12;101138.66;;;3.98;82.92
42633;BME280;28261;53.304;-6.284;2023-03-19T06:17:19;101141.28;;;3.98;82.75
42633;BME280;28261;53.304;-6.284;2023-03-19T06:19:23;101143.06;;;3.98;82.94
42633;BME280;28261;53.304;-6.284;2023-03-19T06:21:27;101148.34;;;3.96;83.29
42633;BME280;28261;53.304;-6.284;2023-03-19T06:23:35;101144.00;;;3.95;82.98
42633;BME280;28261;53.304;-6.284;2023-03-19T06:25:40;101144.91;;;3.94;83.27
42633;BME280;28261;53.304;-6.284;2023-03-19T06:27:44;101143.13;;;3.95;82.88
42633;BME280;28261;53.304;-6.284;2023-03-19T06:29:59;101154.53;;;3.94;82.73
42633;BME280;28261;53.304;-6.284;2023-03-19T06:32:07;101154.53;;;3.94;82.90
42633;BME280;28261;53.304;-6.284;2023-03-19T06:34:15;101157.13;;;3.95;82.92
42633;BME280;28261;53.304;-6.284;2023-03-19T06:36:18;101152.72;;;3.96;83.08
42633;BME280;28261;53.304;-6.284;2023-03-19T06:38:22;101158.81;;;3.96;83.42
42633;BME280;28261;53.304;-6.284;2023-03-19T06:40:25;101151.78;;;3.98;83.49
42633;BME280;28261;53.304;-6.284;2023-03-19T06:42:29;101152.56;;;4.00;83.47
42633;BME280;28261;53.304;-6.284;2023-03-19T06:44:32;101154.28;;;4.01;83.20
42633;BME280;28261;53.304;-6.284;2023-03-19T06:46:36;101158.63;;;4.02;82.87
42633;BME280;28261;53.304;-6.284;2023-03-19T06:48:39;101160.31;;;4.05;82.71
42633;BME280;28261;53.304;-6.284;2023-03-19T06:50:44;101171.59;;;4.07;82.75
42633;BME280;28261;53.304;-6.284;2023-03-19T06:52:48;101175.03;;;4.09;83.04
42633;BME280;28261;53.304;-6.284;2023-03-19T06:54:51;101169.63;;;4.14;82.98
42633;BME280;28261;53.304;-6.284;2023-03-19T06:56:55;101164.28;;;4.17;82.67
42633;BME280;28261;53.304;-6.284;2023-03-19T06:58:58;101171.94;;;4.23;82.94
42633;BME280;28261;53.304;-6.284;2023-03-19T07:01:01;101171.75;;;4.29;82.51
42633;BME280;28261;53.304;-6.284;2023-03-19T07:03:05;101167.19;;;4.34;82.13
42633;BME280;28261;53.304;-6.284;2023-03-19T07:05:08;101171.38;;;4.40;82.04
42633;BME280;28261;53.304;-6.284;2023-03-19T07:07:13;101181.63;;;4.48;82.24
42633;BME280;28261;53.304;-6.284;2023-03-19T07:09:16;101180.53;;;4.53;82.26
42633;BME280;28261;53.304;-6.284;2023-03-19T07:11:20;101183.03;;;4.58;81.89
42633;BME280;28261;53.304;-6.284;2023-03-19T07:13:23;101186.38;;;4.62;81.79
42633;BME280;28261;53.304;-6.284;2023-03-19T07:15:26;101191.50;;;4.66;81.95
42633;BME280;28261;53.304;-6.284;2023-03-19T07:17:29;101191.38;;;4.69;81.13
42633;BME280;28261;53.304;-6.284;2023-03-19T07:19:33;101187.69;;;4.75;81.55
42633;BME280;28261;53.304;-6.284;2023-03-19T07:21:36;101189.22;;;4.81;81.43
42633;BME280;28261;53.304;-6.284;2023-03-19T07:23:41;101189.03;;;4.87;81.13
42633;BME280;28261;53.304;-6.284;2023-03-19T07:25:44;101193.31;;;4.89;81.17
42633;BME280;28261;53.304;-6.284;2023-03-19T07:27:48;101201.09;;;4.93;81.03
42633;BME280;28261;53.304;-6.284;2023-03-19T07:29:51;101188.69;;;4.96;80.73
42633;BME280;28261;53.304;-6.284;2023-03-19T07:31:56;101197.19;;;5.03;80.49
42633;BME280;28261;53.304;-6.284;2023-03-19T07:34:00;101190.13;;;5.05;80.44
42633;BME280;28261;53.304;-6.284;2023-03-19T07:36:04;101193.38;;;5.12;80.19
42633;BME280;28261;53.304;-6.284;2023-03-19T07:38:08;101192.31;;;5.17;80.29
42633;BME280;28261;53.304;-6.284;2023-03-19T07:40:12;101203.44;;;5.24;79.83
42633;BME280;28261;53.304;-6.284;2023-03-19T07:42:16;101201.50;;;5.29;80.00
42633;BME280;28261;53.304;-6.284;2023-03-19T07:44:19;101201.19;;;5.37;79.76
42633;BME280;28261;53.304;-6.284;2023-03-19T07:46:22;101210.63;;;5.42;79.47
42633;BME280;28261;53.304;-6.284;2023-03-19T07:48:26;101212.22;;;5.47;79.38
42633;BME280;28261;53.304;-6.284;2023-03-19T07:50:29;101205.94;;;5.51;78.38
42633;BME280;28261;53.304;-6.284;2023-03-19T07:52:33;101201.31;;;5.57;78.86
42633;BME280;28261;53.304;-6.284;2023-03-19T07:54:37;101213.41;;;5.62;78.48
42633;BME280;28261;53.304;-6.284;2023-03-19T07:56:42;101213.31;;;5.65;78.57
42633;BME280;28261;53.304;-6.284;2023-03-19T07:58:46;101211.41;;;5.68;78.36
42633;BME280;28261;53.304;-6.284;2023-03-19T08:00:49;101207.81;;;5.71;78.38
42633;BME280;28261;53.304;-6.284;2023-03-19T08:02:53;101204.13;;;5.75;78.43
42633;BME280;28261;53.304;-6.284;2023-03-19T08:04:56;101203.16;;;5.78;78.51
42633;BME280;28261;53.304;-6.284;2023-03-19T08:07:03;101205.66;;;5.81;78.40
42633;BME280;28261;53.304;-6.284;2023-03-19T08:09:07;101204.75;;;5.82;78.85
42633;BME280;28261;53.304;-6.284;2023-03-19T08:11:10;101205.56;;;5.84;78.27
42633;BME280;28261;53.304;-6.284;2023-03-19T08:13:15;101207.31;;;5.83;78.13
42633;BME280;28261;53.304;-6.284;2023-03-19T08:15:18;101206.47;;;5.83;78.17
42633;BME280;28261;53.304;-6.284;2023-03-19T08:17:22;101211.75;;;5.83;77.90
42633;BME280;28261;53.304;-6.284;2023-03-19T08:19:25;101205.50;;;5.85;77.83
42633;BME280;28261;53.304;-6.284;2023-03-19T08:21:29;101207.94;;;5.90;77.56
42633;BME280;28261;53.304;-6.284;2023-03-19T08:23:34;101207.78;;;5.95;77.18
42633;BME280;28261;53.304;-6.284;2023-03-19T08:25:37;101215.31;;;6.04;76.57
42633;BME280;28261;53.304;-6.284;2023-03-19T08:27:41;101205.53;;;6.07;76.19
42633;BME280;28261;53.304;-6.284;2023-03-19T08:29:46;101199.91;;;6.17;76.30
42633;BME280;28261;53.304;-6.284;2023-03-19T08:31:49;101192.59;;;6.23;75.73
42633;BME280;28261;53.304;-6.284;2023-03-19T08:33:52;101199.91;;;6.37;75.44
42633;BME280;28261;53.304;-6.284;2023-03-19T08:36:04;101203.03;;;6.47;74.89
42633;BME280;28261;53.304;-6.284;2023-03-19T08:38:08;101212.97;;;6.61;74.79
42633;BME280;28261;53.304;-6.284;2023-03-19T08:40:12;101211.66;;;6.71;74.19
42633;BME280;28261;53.304;-6.284;2023-03-19T08:42:16;101219.94;;;6.83;73.57
42633;BME280;28261;53.304;-6.284;2023-03-19T08:44:19;101207.16;;;6.94;73.67
42633;BME280;28261;53.304;-6.284;2023-03-19T08:46:24;101223.16;;;7.10;73.20
42633;BME280;28261;53.304;-6.284;2023-03-19T08:48:28;101215.53;;;7.23;72.66
42633;BME280;28261;53.304;-6.284;2023-03-19T08:50:32;101228.06;;;7.38;72.71
42633;BME280;28261;53.304;-6.284;2023-03-19T08:52:37;101220.34;;;7.53;72.81
42633;BME280;28261;53.304;-6.284;2023-03-19T08:54:41;101225.19;;;7.62;71.54
42633;BME280;28261;53.304;-6.284;2023-03-19T08:56:44;101227.50;;;7.70;71.09
42633;BME280;28261;53.304;-6.284;2023-03-19T08:58:48;101229.66;;;7.79;71.61
42633;BME280;28261;53.304;-6.284;2023-03-19T09:00:52;101216.91;;;7.89;71.41
42633;BME280;28261;53.304;-6.284;2023-03-19T09:02:57;101221.53;;;8.03;70.70
42633;BME280;28261;53.304;-6.284;2023-03-19T09:05:00;101217.56;;;8.11;69.95
42633;BME280;28261;53.304;-6.284;2023-03-19T09:07:04;101213.84;;;8.16;69.21
42633;BME280;28261;53.304;-6.284;2023-03-19T09:09:08;101219.69;;;8.22;68.92
42633;BME280;28261;53.304;-6.284;2023-03-19T09:11:12;101216.34;;;8.36;69.68
42633;BME280;28261;53.304;-6.284;2023-03-19T09:13:18;101217.50;;;8.50;69.46
42633;BME280;28261;53.304;-6.284;2023-03-19T09:15:22;101214.06;;;8.65;69.07
42633;BME280;28261;53.304;-6.284;2023-03-19T09:17:25;101207.22;;;8.78;68.15
42633;BME280;28261;53.304;-6.284;2023-03-19T09:19:31;101203.16;;;8.89;67.70
42633;BME280;28261;53.304;-6.284;2023-03-19T09:21:35;101201.16;;;8.94;66.85
42633;BME280;28261;53.304;-6.284;2023-03-19T09:23:39;101206.00;;;9.02;66.69
42633;BME280;28261;53.304;-6.284;2023-03-19T09:25:43;101209.81;;;9.13;66.66
42633;BME280;28261;53.304;-6.284;2023-03-19T09:27:47;101212.09;;;9.20;64.92
42633;BME280;28261;53.304;-6.284;2023-03-19T09:29:51;101216.91;;;9.29;65.09
42633;BME280;28261;53.304;-6.284;2023-03-19T09:31:55;101216.59;;;9.35;63.91
42633;BME280;28261;53.304;-6.284;2023-03-19T09:33:58;101211.31;;;9.35;63.54
42633;BME280;28261;53.304;-6.284;2023-03-19T09:36:05;101212.41;;;9.31;62.64
42633;BME280;28261;53.304;-6.284;2023-03-19T09:38:09;101211.63;;;9.29;62.28
42633;BME280;28261;53.304;-6.284;2023-03-19T09:40:20;101205.47;;;9.28;62.70
42633;BME280;28261;53.304;-6.284;2023-03-19T09:42:44;101208.03;;;9.30;62.11
42633;BME280;28261;53.304;-6.284;2023-03-19T09:44:52;101209.75;;;9.31;61.76
42633;BME280;28261;53.304;-6.284;2023-03-19T09:46:58;101211.69;;;9.27;61.29
42633;BME280;28261;53.304;-6.284;2023-03-19T09:49:13;101211.25;;;9.19;61.37
42633;BME280;28261;53.304;-6.284;2023-03-19T09:51:26;101208.88;;;9.14;61.19
42633;BME280;28261;53.304;-6.284;2023-03-19T09:53:38;101203.59;;;9.14;61.21
42633;BME280;28261;53.304;-6.284;2023-03-19T09:55:44;101214.31;;;9.11;61.28
42633;BME280;28261;53.304;-6.284;2023-03-19T09:57:51;101213.63;;;9.08;61.04
42633;BME280;28261;53.304;-6.284;2023-03-19T09:59:57;101212.16;;;9.02;60.75
42633;BME280;28261;53.304;-6.284;2023-03-19T10:02:17;101212.41;;;8.97;60.81
42633;BME280;28261;53.304;-6.284;2023-03-19T10:04:41;101211.84;;;8.91;60.67
42633;BME280;28261;53.304;-6.284;2023-03-19T10:06:49;101205.09;;;8.85;60.70
42633;BME280;28261;53.304;-6.284;2023-03-19T10:09:03;101199.06;;;8.83;60.56
42633;BME280;28261;53.304;-6.284;2023-03-19T10:11:30;101211.88;;;8.73;60.52
42633;BME280;28261;53.304;-6.284;2023-03-19T10:13:44;101218.03;;;8.74;61.54
42633;BME280;28261;53.304;-6.284;2023-03-19T10:15:53;101215.22;;;8.77;61.11
42633;BME280;28261;53.304;-6.284;2023-03-19T10:18:01;101209.63;;;8.83;61.43
42633;BME280;28261;53.304;-6.284;2023-03-19T10:20:09;101196.34;;;8.85;60.60
42633;BME280;28261;53.304;-6.284;2023-03-19T10:22:23;101195.38;;;8.86;60.86
42633;BME280;28261;53.304;-6.284;2023-03-19T10:24:31;101195.16;;;8.90;60.97
42633;BME280;28261;53.304;-6.284;2023-03-19T10:26:38;101213.09;;;9.01;61.26
42633;BME280;28261;53.304;-6.284;2023-03-19T10:28:43;101218.91;;;9.08;60.18
42633;BME280;28261;53.304;-6.284;2023-03-19T10:30:52;101218.75;;;9.11;60.42
42633;BME280;28261;53.304;-6.284;2023-03-19T10:33:07;101201.06;;;9.11;60.49
42633;BME280;28261;53.304;-6.284;2023-03-19T10:35:18;101195.03;;;9.09;60.20
42633;BME280;28261;53.304;-6.284;2023-03-19T10:37:26;101200.50;;;9.06;60.41
42633;BME280;28261;53.304;-6.284;2023-03-19T10:39:32;101201.50;;;9.04;60.85
42633;BME280;28261;53.304;-6.284;2023-03-19T10:41:43;101212.75;;;9.07;60.94
42633;BME280;28261;53.304;-6.284;2023-03-19T10:43:52;101201.50;;;9.04;61.19
42633;BME280;28261;53.304;-6.284;2023-03-19T10:45:57;101197.22;;;9.01;61.43
42633;BME280;28261;53.304;-6.284;2023-03-19T10:48:02;101192.78;;;9.02;62.03
42633;BME280;28261;53.304;-6.284;2023-03-19T10:50:09;101191.78;;;9.04;61.84
42633;BME280;28261;53.304;-6.284;2023-03-19T10:52:20;101205.63;;;9.09;61.58
42633;BME280;28261;53.304;-6.284;2023-03-19T10:54:28;101208.34;;;9.08;61.75
42633;BME280;28261;53.304;-6.284;2023-03-19T10:56:33;101216.41;;;9.05;61.26
42633;BME280;28261;53.304;-6.284;2023-03-19T10:58:37;101215.81;;;9.00;61.04
42633;BME280;28261;53.304;-6.284;2023-03-19T11:00:45;101212.41;;;8.97;61.77
42633;BME280;28261;53.304;-6.284;2023-03-19T11:02:50;101219.66;;;8.94;62.07